createdAt,value
2019-03-02T00:03:31.669Z,93.05
2019-03-02T00:06:00.938Z,93.37
2019-03-02T00:08:31.101Z,93.48
2019-03-02T00:11:00.386Z,93.87
2019-03-02T00:13:30.021Z,93.95
2019-03-02T00:16:00.813Z,93.78
2019-03-02T00:18:30.365Z,94.10
2019-03-02T00:20:59.757Z,94.02
2019-03-02T00:23:29.084Z,93.99
2019-03-02T00:25:58.399Z,94.26
2019-03-02T00:28:27.681Z,94.78
2019-03-02T00:30:57.794Z,94.72
2019-03-02T00:33:27.991Z,94.89
2019-03-02T00:35:57.278Z,95.15
2019-03-02T00:38:26.561Z,95.22
2019-03-02T00:40:56.009Z,95.15
2019-03-02T00:43:27.086Z,95.34
2019-03-02T00:45:57.402Z,95.93
2019-03-02T00:51:01.330Z,97.57
2019-03-02T00:53:31.954Z,97.85
2019-03-02T00:56:13.162Z,97.83
2019-03-02T00:58:42.548Z,98.13
2019-03-02T01:01:11.841Z,98.18
2019-03-02T01:03:41.330Z,98.72
2019-03-02T01:06:29.866Z,98.33
2019-03-02T01:08:59.128Z,97.86
2019-03-02T01:11:29.509Z,97.80
2019-03-02T01:13:59.568Z,97.44
2019-03-02T01:16:28.885Z,97.59
2019-03-02T01:18:58.186Z,97.90
2019-03-02T01:21:27.766Z,97.87
2019-03-02T01:23:59.718Z,97.88
2019-03-02T01:26:28.278Z,99.24
2019-03-02T01:28:57.578Z,99.79
2019-03-02T01:31:26.883Z,98.92
2019-03-02T01:36:16.668Z,98.30
2019-03-02T01:38:46.073Z,98.80
2019-03-02T01:41:17.764Z,98.62
2019-03-02T01:46:22.219Z,98.44
2019-03-02T01:48:51.521Z,98.83
2019-03-02T01:51:23.152Z,99.24
2019-03-02T01:53:52.243Z,98.79
2019-03-02T01:56:41.439Z,98.99
2019-03-02T01:59:32.085Z,99.86
2019-03-02T02:02:01.526Z,99.91
2019-03-02T02:04:31.089Z,100.00
2019-03-02T02:07:00.444Z,100.00
2019-03-02T02:09:29.737Z,99.88
2019-03-02T02:11:59.122Z,100.00
2019-03-02T02:14:28.450Z,99.91
2019-03-02T02:16:57.729Z,100.00
2019-03-02T02:19:27.136Z,100.00
2019-03-02T02:21:58.850Z,100.00
2019-03-02T02:24:27.733Z,100.00
2019-03-02T02:26:57.013Z,100.00
2019-03-02T02:29:26.500Z,100.00
2019-03-02T02:31:55.801Z,100.00
2019-03-02T02:34:25.511Z,100.00
2019-03-02T02:39:49.432Z,100.00
2019-03-02T02:42:18.745Z,100.00
2019-03-02T02:44:48.297Z,100.00
2019-03-02T02:47:17.586Z,100.00
2019-03-02T02:49:49.107Z,100.00
2019-03-02T02:52:18.133Z,100.00
2019-03-02T02:54:47.461Z,100.00
2019-03-02T02:57:16.762Z,100.00
2019-03-02T02:59:46.229Z,100.00
2019-03-02T03:02:15.584Z,100.00
2019-03-02T03:04:44.915Z,100.00
2019-03-02T03:07:14.393Z,100.00
2019-03-02T03:10:02.930Z,100.00
2019-03-02T03:12:32.263Z,100.00
2019-03-02T03:15:01.627Z,100.00
2019-03-02T03:17:32.495Z,100.00
2019-03-02T03:20:05.710Z,100.00
2019-03-02T03:22:32.987Z,100.00
2019-03-02T03:25:04.193Z,100.00
2019-03-02T03:27:33.340Z,100.00
2019-03-02T03:30:02.997Z,100.00
2019-03-02T03:32:32.328Z,100.00
2019-03-02T03:35:15.616Z,100.00
2019-03-02T03:37:32.893Z,100.00
2019-03-02T03:40:02.315Z,100.00
2019-03-02T03:42:31.660Z,100.00
2019-03-02T03:45:04.345Z,100.00
2019-03-02T03:47:34.089Z,100.00
2019-03-02T03:50:03.235Z,100.00
2019-03-02T03:52:32.594Z,100.00
2019-03-02T03:55:02.053Z,100.00
2019-03-02T03:57:31.389Z,100.00
2019-03-02T04:00:20.005Z,100.00
2019-03-02T04:02:49.388Z,100.00
2019-03-02T04:05:42.262Z,100.00
2019-03-02T04:08:24.349Z,100.00
2019-03-02T04:10:51.362Z,100.00
2019-03-02T04:13:21.028Z,100.00
2019-03-02T04:15:50.320Z,100.00
2019-03-02T04:19:06.678Z,100.00
2019-03-02T04:21:38.842Z,100.00
2019-03-02T04:24:08.135Z,100.00
2019-03-02T04:29:12.608Z,100.00
2019-03-02T04:31:43.982Z,100.00
2019-03-02T04:34:20.614Z,100.00
2019-03-02T04:36:47.465Z,100.00
2019-03-02T04:39:15.176Z,100.00
2019-03-02T04:41:44.742Z,100.00
2019-03-02T04:44:14.074Z,100.00
2019-03-02T04:46:43.637Z,100.00
2019-03-02T04:49:14.660Z,100.00
2019-03-02T04:51:44.364Z,100.00
2019-03-02T04:54:13.654Z,100.00
2019-03-02T04:59:21.995Z,100.00
2019-03-02T05:01:51.289Z,100.00
2019-03-02T05:04:20.660Z,100.00
2019-03-02T05:06:50.638Z,100.00
2019-03-02T05:09:20.975Z,100.00
2019-03-02T05:11:50.314Z,100.00
2019-03-02T05:14:19.619Z,100.00
2019-03-02T05:16:49.193Z,100.00
2019-03-02T05:19:18.519Z,100.00
2019-03-02T05:21:48.229Z,100.00
2019-03-02T05:24:17.521Z,100.00
2019-03-02T05:26:47.117Z,100.00
2019-03-02T05:29:17.690Z,100.00
2019-03-02T05:32:06.524Z,100.00
2019-03-02T05:34:36.728Z,100.00
2019-03-02T05:37:07.447Z,100.00
2019-03-02T05:39:55.782Z,100.00
2019-03-02T05:42:25.550Z,100.00
2019-03-02T05:45:13.755Z,100.00
2019-03-02T05:47:43.217Z,100.00
2019-03-02T05:50:12.647Z,100.00
2019-03-02T05:52:41.983Z,100.00
2019-03-02T05:55:30.692Z,100.00
2019-03-02T05:58:00.333Z,100.00
2019-03-02T06:00:29.628Z,100.00
2019-03-02T06:02:59.482Z,100.00
2019-03-02T06:05:28.880Z,100.00
2019-03-02T06:08:00.438Z,100.00
2019-03-02T06:10:29.234Z,100.00
2019-03-02T06:13:18.903Z,100.00
2019-03-02T06:15:48.490Z,100.00
2019-03-02T06:18:17.852Z,100.00
2019-03-02T06:20:47.157Z,100.00
2019-03-02T06:23:16.536Z,100.00
2019-03-02T06:25:45.867Z,100.00
2019-03-02T06:28:15.161Z,100.00
2019-03-02T06:30:45.031Z,100.00
2019-03-02T06:33:36.197Z,100.00
2019-03-02T06:36:08.805Z,100.00
2019-03-02T06:38:37.206Z,100.00
2019-03-02T06:41:06.556Z,100.00
2019-03-02T06:43:35.920Z,100.00
2019-03-02T06:46:05.273Z,100.00
2019-03-02T06:48:34.600Z,100.00
2019-03-02T06:51:03.940Z,100.00
2019-03-02T06:53:34.034Z,100.00
2019-03-02T06:56:04.406Z,100.00
2019-03-02T06:58:34.094Z,100.00
2019-03-02T07:01:03.417Z,100.00
2019-03-02T07:03:51.682Z,100.00
2019-03-02T07:06:21.051Z,100.00
2019-03-02T07:08:50.363Z,100.00
2019-03-02T07:11:19.697Z,100.00
2019-03-02T07:13:49.010Z,100.00
2019-03-02T07:16:20.094Z,100.00
2019-03-02T07:21:44.151Z,100.00
2019-03-02T07:24:13.456Z,100.00
2019-03-02T07:29:36.617Z,100.00
2019-03-02T07:32:06.156Z,100.00
2019-03-02T07:37:23.863Z,100.00
2019-03-02T07:39:53.166Z,100.00
2019-03-02T07:42:22.592Z,100.00
2019-03-02T07:45:10.795Z,100.00
2019-03-02T07:47:40.252Z,100.00
2019-03-02T07:50:29.735Z,100.00
2019-03-02T07:52:59.099Z,100.00
2019-03-02T07:55:28.399Z,100.00
2019-03-02T07:57:57.740Z,100.00
2019-03-02T08:00:27.219Z,100.00
2019-03-02T08:02:56.762Z,100.00
2019-03-02T08:08:34.672Z,100.00
2019-03-02T08:11:03.969Z,100.00
2019-03-02T08:13:36.614Z,100.00
2019-03-02T08:16:04.361Z,100.00
2019-03-02T08:26:38.023Z,100.00
2019-03-02T08:29:07.638Z,100.00
2019-03-02T08:31:37.032Z,100.00
2019-03-02T08:34:09.758Z,100.00
2019-03-02T08:36:38.064Z,100.00
2019-03-02T08:39:10.648Z,100.00
2019-03-02T08:41:39.248Z,100.00
2019-03-02T08:44:08.664Z,100.00
2019-03-02T08:46:38.552Z,100.00
2019-03-02T08:49:09.263Z,100.00
2019-03-02T08:51:57.757Z,100.00
2019-03-02T08:54:27.477Z,100.00
2019-03-02T08:57:15.694Z,100.00
2019-03-02T09:02:19.497Z,100.00
2019-03-02T09:04:50.821Z,100.00
2019-03-02T09:07:20.657Z,100.00
2019-03-02T09:09:50.341Z,100.00
2019-03-02T09:12:21.881Z,100.00
2019-03-02T09:14:50.919Z,100.00
2019-03-02T09:17:20.274Z,100.00
2019-03-02T09:19:49.637Z,100.00
2019-03-02T09:22:20.855Z,100.00
2019-03-02T09:24:50.126Z,100.00
2019-03-02T09:27:38.346Z,100.00
2019-03-02T09:30:09.834Z,100.00
2019-03-02T09:32:39.202Z,100.00
2019-03-02T09:35:09.479Z,100.00
2019-03-02T09:37:40.869Z,100.00
2019-03-02T09:40:13.388Z,100.00
2019-03-02T09:42:42.612Z,100.00
2019-03-02T09:45:13.532Z,100.00
2019-03-02T09:47:43.957Z,100.00
2019-03-02T09:50:15.305Z,100.00
2019-03-02T09:52:44.911Z,100.00
2019-03-02T09:55:56.243Z,100.00
2019-03-02T09:58:25.855Z,100.00
2019-03-02T10:00:56.810Z,100.00
2019-03-02T10:03:26.934Z,100.00
2019-03-02T10:05:57.212Z,100.00
2019-03-02T10:08:26.597Z,100.00
2019-03-02T10:10:56.138Z,100.00
2019-03-02T10:13:25.483Z,100.00
2019-03-02T10:15:54.950Z,100.00
2019-03-02T10:18:24.310Z,100.00
2019-03-02T10:20:55.445Z,100.00
2019-03-02T10:23:25.144Z,100.00
2019-03-02T10:25:54.667Z,100.00
2019-03-02T10:28:24.173Z,100.00
2019-03-02T10:30:53.483Z,100.00
2019-03-02T10:33:41.823Z,100.00
2019-03-02T10:36:11.159Z,100.00
2019-03-02T10:38:40.484Z,100.00
2019-03-02T10:41:28.723Z,100.00
2019-03-02T10:43:58.110Z,100.00
2019-03-02T10:46:27.550Z,100.00
2019-03-02T10:48:56.975Z,100.00
2019-03-02T10:51:26.301Z,100.00
2019-03-02T10:56:50.566Z,100.00
2019-03-02T10:59:19.943Z,100.00
2019-03-02T11:01:49.376Z,100.00
2019-03-02T11:04:41.034Z,100.00
2019-03-02T11:07:27.605Z,100.00
2019-03-02T11:10:16.676Z,100.00
2019-03-02T11:13:05.865Z,100.00
2019-03-02T11:15:54.226Z,100.00
2019-03-02T11:18:42.456Z,100.00
2019-03-02T11:21:30.956Z,100.00
2019-03-02T11:24:20.702Z,100.00
2019-03-02T11:26:56.433Z,100.00
2019-03-02T11:29:50.944Z,100.00
2019-03-02T11:32:29.292Z,100.00
2019-03-02T11:35:11.438Z,100.00
2019-03-02T11:38:01.527Z,99.83
2019-03-02T11:40:49.569Z,99.65
2019-03-02T11:43:37.784Z,99.21
2019-03-02T11:46:15.112Z,98.24
2019-03-02T11:49:03.420Z,97.72
2019-03-02T11:51:51.671Z,97.06
2019-03-02T11:54:39.980Z,95.93
2019-03-02T11:57:28.214Z,95.21
2019-03-02T12:00:37.447Z,94.06
2019-03-02T12:03:18.332Z,93.84
2019-03-02T12:06:07.090Z,93.19
2019-03-02T12:08:57.976Z,93.50
2019-03-02T12:11:47.064Z,93.52
2019-03-02T12:14:35.192Z,93.86
2019-03-02T12:17:23.400Z,94.12
2019-03-02T12:20:11.622Z,93.59
2019-03-02T12:22:59.846Z,94.21
2019-03-02T12:28:53.598Z,93.99
2019-03-02T12:31:38.355Z,93.21
2019-03-02T12:34:26.776Z,92.47
2019-03-02T12:37:32.844Z,93.24
2019-03-02T12:40:19.975Z,92.66
2019-03-02T12:43:08.574Z,92.56
2019-03-02T12:48:42.815Z,91.80
2019-03-02T12:51:31.071Z,91.07
2019-03-02T12:54:19.405Z,91.05
2019-03-02T12:57:08.717Z,90.81
2019-03-02T12:59:57.737Z,90.30
2019-03-02T13:02:48.011Z,90.99
2019-03-02T13:05:36.495Z,91.64
2019-03-02T13:08:26.479Z,92.54
2019-03-02T13:11:14.869Z,92.95
2019-03-02T13:13:56.686Z,92.55
2019-03-02T13:16:45.655Z,92.81
2019-03-02T13:19:34.719Z,92.69
2019-03-02T13:22:26.152Z,92.30
2019-03-02T13:25:05.620Z,92.29
2019-03-02T13:27:56.829Z,91.59
2019-03-02T13:30:41.137Z,90.99
2019-03-02T13:33:48.469Z,92.21
2019-03-02T13:36:26.063Z,94.17
2019-03-02T13:39:06.491Z,94.79
2019-03-02T13:41:55.347Z,95.33
2019-03-02T13:44:43.776Z,95.75
2019-03-02T13:47:32.036Z,96.08
2019-03-02T13:50:20.476Z,96.12
2019-03-02T13:53:08.733Z,96.29
2019-03-02T13:55:49.413Z,96.52
2019-03-02T13:58:24.949Z,97.27
2019-03-02T14:01:13.335Z,97.46
2019-03-02T14:04:01.745Z,98.15
2019-03-02T14:06:50.959Z,98.42
2019-03-02T14:09:40.407Z,98.07
2019-03-02T14:12:29.099Z,98.02
2019-03-02T14:15:21.525Z,98.29
2019-03-02T14:17:58.299Z,98.23
2019-03-02T14:20:46.483Z,98.07
2019-03-02T14:23:35.008Z,97.92
2019-03-02T14:26:13.586Z,97.90
2019-03-02T14:29:21.012Z,98.07
2019-03-02T14:32:10.136Z,98.38
2019-03-02T14:34:59.213Z,98.46
2019-03-02T14:37:47.860Z,98.48
2019-03-02T14:40:37.238Z,98.20
2019-03-02T14:43:19.974Z,97.95
2019-03-02T14:46:08.443Z,97.65
2019-03-02T14:48:56.765Z,97.57
2019-03-02T14:51:32.629Z,97.61
2019-03-02T14:54:21.913Z,97.70
2019-03-02T14:56:57.683Z,98.27
2019-03-02T14:59:46.882Z,98.12
2019-03-02T15:02:49.000Z,98.31
2019-03-02T15:05:37.619Z,98.62
2019-03-02T15:08:17.572Z,98.86
2019-03-02T15:11:05.865Z,98.77
2019-03-02T15:13:54.218Z,98.84
2019-03-02T15:17:01.568Z,98.69
2019-03-02T15:19:57.389Z,98.74
2019-03-02T15:23:00.813Z,98.78
2019-03-02T15:25:40.731Z,98.74
2019-03-02T15:28:29.823Z,98.47
2019-03-02T15:31:19.095Z,98.33
2019-03-02T15:34:10.249Z,98.36
2019-03-02T15:36:57.333Z,98.51
2019-03-02T15:39:49.277Z,98.44
2019-03-02T15:42:35.458Z,97.99
2019-03-02T15:45:30.254Z,97.99
2019-03-02T15:48:37.508Z,97.86
2019-03-02T15:51:30.864Z,97.74
2019-03-02T15:54:18.742Z,97.60
2019-03-02T15:57:06.946Z,97.73
2019-03-02T15:59:55.144Z,97.64
2019-03-02T16:02:43.592Z,97.49
2019-03-02T16:05:31.969Z,97.29
2019-03-02T16:08:20.165Z,97.48
2019-03-02T16:10:56.602Z,97.42
2019-03-02T16:13:49.872Z,97.44
2019-03-02T16:16:34.890Z,98.01
2019-03-02T16:19:25.105Z,98.11
2019-03-02T16:22:13.370Z,97.94
2019-03-02T16:25:04.917Z,98.62
2019-03-02T16:27:51.718Z,98.57
2019-03-02T16:30:40.423Z,98.81
2019-03-02T16:33:31.184Z,99.13
2019-03-02T16:36:18.738Z,99.03
2019-03-02T16:42:07.222Z,99.34
2019-03-02T16:44:55.599Z,99.82
2019-03-02T16:47:48.485Z,100.00
2019-03-02T16:50:35.237Z,100.00
2019-03-02T16:53:19.562Z,100.00
2019-03-02T16:56:07.570Z,100.00
2019-03-02T16:58:56.986Z,100.00
2019-03-02T17:01:45.388Z,100.00
2019-03-02T17:04:33.748Z,100.00
2019-03-02T17:07:23.294Z,99.80
2019-03-02T17:10:12.457Z,99.52
2019-03-02T17:13:01.150Z,99.06
2019-03-02T17:15:49.352Z,98.96
2019-03-02T17:18:37.711Z,98.57
2019-03-02T17:21:16.584Z,98.55
2019-03-02T17:23:54.151Z,98.24
2019-03-02T17:26:46.108Z,97.68
2019-03-02T17:29:32.416Z,97.40
2019-03-02T17:32:21.198Z,97.49
2019-03-02T17:35:09.443Z,97.10
2019-03-02T17:37:58.292Z,97.05
2019-03-02T17:41:07.791Z,96.96
2019-03-02T17:43:55.558Z,97.07
2019-03-02T17:46:47.039Z,96.87
2019-03-02T17:49:28.726Z,96.44
2019-03-02T17:52:13.346Z,96.13
2019-03-02T17:55:20.247Z,95.22
2019-03-02T17:58:08.581Z,95.43
2019-03-02T18:00:59.894Z,94.71
2019-03-02T18:03:49.822Z,94.38
2019-03-02T18:06:23.706Z,94.41
2019-03-02T18:09:10.562Z,94.16
2019-03-02T18:11:58.930Z,93.98
2019-03-02T18:14:49.993Z,93.78
2019-03-02T18:17:38.242Z,93.51
2019-03-02T18:20:19.559Z,93.40
2019-03-02T18:22:49.634Z,93.64
2019-03-02T18:25:38.309Z,93.53
2019-03-02T18:28:27.105Z,93.71
2019-03-02T18:30:57.453Z,93.89
2019-03-02T18:36:21.204Z,94.21
2019-03-02T18:38:50.539Z,94.39
2019-03-02T18:41:19.860Z,94.29
2019-03-02T18:43:49.287Z,94.35
2019-03-02T18:46:18.573Z,94.38
2019-03-02T18:51:56.913Z,94.43
2019-03-02T18:54:27.402Z,94.46
2019-03-02T18:56:56.877Z,94.49
2019-03-02T18:59:26.370Z,94.70
2019-03-02T19:01:55.735Z,95.19
2019-03-02T19:04:27.804Z,95.62
2019-03-02T19:06:59.236Z,95.73
2019-03-02T19:12:16.968Z,96.43
2019-03-02T19:20:18.262Z,97.51
2019-03-02T19:22:47.745Z,97.45
2019-03-02T19:25:56.341Z,97.48
2019-03-02T19:28:44.570Z,97.24
2019-03-02T19:33:53.130Z,96.76
2019-03-02T19:36:22.462Z,96.71
2019-03-02T19:38:51.767Z,96.42
2019-03-02T19:41:40.113Z,96.32
2019-03-02T19:44:09.441Z,96.32
2019-03-02T19:46:38.891Z,96.10
2019-03-02T19:49:08.177Z,95.98
2019-03-02T19:51:37.562Z,95.84
2019-03-02T19:54:06.936Z,95.74
2019-03-02T19:56:36.363Z,95.59
2019-03-02T19:59:05.723Z,95.48
2019-03-02T20:01:35.642Z,95.37
2019-03-02T20:04:05.231Z,95.24
2019-03-02T20:06:34.591Z,95.29
2019-03-02T20:12:12.471Z,95.22
2019-03-02T20:14:41.906Z,95.14
2019-03-02T20:20:01.118Z,95.10
2019-03-02T20:22:30.450Z,95.05
2019-03-02T20:24:59.736Z,95.12
2019-03-02T20:27:48.216Z,95.18
2019-03-02T20:30:18.531Z,95.10
2019-03-02T20:32:47.832Z,95.10
2019-03-02T20:35:20.610Z,95.13
2019-03-02T20:37:49.914Z,95.21
2019-03-02T20:40:20.775Z,95.15
2019-03-02T20:45:38.571Z,95.28
2019-03-02T20:48:08.074Z,95.49
2019-03-02T20:50:37.407Z,95.87
2019-03-02T20:53:07.082Z,95.84
2019-03-02T20:55:36.387Z,95.98
2019-03-02T20:58:05.938Z,96.06
2019-03-02T21:00:35.381Z,96.02
2019-03-02T21:03:23.723Z,96.24
2019-03-02T21:05:53.278Z,96.77
2019-03-02T21:08:22.567Z,97.50
2019-03-02T21:10:52.307Z,98.47
2019-03-02T21:13:21.622Z,98.76
2019-03-02T21:15:51.587Z,99.61
2019-03-02T21:18:20.929Z,99.95
2019-03-02T21:20:50.546Z,100.00
2019-03-02T21:23:19.861Z,100.00
2019-03-02T21:25:49.358Z,100.00
2019-03-02T21:28:18.719Z,100.00
2019-03-02T21:30:48.366Z,100.00
2019-03-02T21:33:17.661Z,100.00
2019-03-02T21:35:47.330Z,100.00
2019-03-02T21:38:16.768Z,100.00
2019-03-02T21:40:46.314Z,100.00
2019-03-02T21:43:15.644Z,100.00
2019-03-02T21:45:45.211Z,100.00
2019-03-02T21:48:14.632Z,100.00
2019-03-02T21:51:04.850Z,100.00
2019-03-02T21:53:34.218Z,100.00
2019-03-02T21:56:03.537Z,100.00
2019-03-02T21:58:51.886Z,100.00
2019-03-02T22:01:21.249Z,100.00
2019-03-02T22:04:09.529Z,100.00
2019-03-02T22:06:38.867Z,100.00
2019-03-02T22:09:48.022Z,100.00
2019-03-02T22:12:17.326Z,100.00
2019-03-02T22:14:46.719Z,100.00
2019-03-02T22:17:16.099Z,100.00
2019-03-02T22:19:45.610Z,100.00
2019-03-02T22:22:14.948Z,100.00
2019-03-02T22:25:03.232Z,100.00
2019-03-02T22:27:32.734Z,100.00
2019-03-02T22:32:50.690Z,100.00
2019-03-02T22:46:12.525Z,100.00
2019-03-02T22:51:35.414Z,100.00
2019-03-02T22:54:04.764Z,100.00
2019-03-02T22:56:34.080Z,100.00
2019-03-02T22:59:02.371Z,100.00
2019-03-02T23:02:09.854Z,100.00
2019-03-02T23:04:39.140Z,100.00
2019-03-02T23:07:27.463Z,100.00
2019-03-02T23:09:57.141Z,100.00
2019-03-02T23:12:26.434Z,100.00
2019-03-02T23:17:44.563Z,100.00
2019-03-02T23:20:13.846Z,100.00
2019-03-02T23:22:43.521Z,100.00
2019-03-02T23:25:12.823Z,100.00
2019-03-02T23:27:42.361Z,100.00
2019-03-02T23:30:11.803Z,100.00
2019-03-02T23:32:41.432Z,100.00
2019-03-02T23:35:10.788Z,100.00
2019-03-02T23:37:40.358Z,100.00
2019-03-02T23:40:09.687Z,100.00
2019-03-02T23:42:39.328Z,100.00
2019-03-02T23:45:08.868Z,100.00
2019-03-02T23:47:38.274Z,100.00
2019-03-02T23:50:08.178Z,100.00
2019-03-02T23:52:56.426Z,100.00
2019-03-02T23:58:00.828Z,100.00
